Data for 10/26/2006

Time Sea-Level Adjusted Pressure Absolute Pressure Temperature Relative Humidity Dew Point   
(mb) (inHg) (mb) (inHg) (C) (F) (%) (C) (F)
00:05 1023 30.21 852 25.16 1.2 34.1 63 -5 23
00:10 1023 30.21 852 25.16 1.2 34.2 62 -5.3 22.5
00:15 1023 30.21 852 25.16 1.3 34.3 61 -5.5 22.1
00:20 1023 30.21 852 25.16 1.4 34.4 60 -5.5 22.1
00:25 1023 30.21 852 25.16 1.5 34.6 60 -5.6 22
00:30 1023 30.21 852 25.16 1.5 34.8 60 -5.5 22.1
00:35 1023 30.21 852 25.16 1.3 34.3 61 -5.5 22.2
00:40 1023 30.21 853 25.19 1.1 34 60 -5.7 21.7
00:45 1023 30.21 853 25.19 1.2 34.2 61 -5.5 22
00:50 1023 30.21 853 25.19 1 33.8 61 -5.6 21.9
00:55 1024 30.24 853 25.19 1 33.7 61 -5.7 21.8
01:00 1024 30.24 853 25.19 1.1 34 60 -5.8 21.6
01:05 1024 30.24 853 25.19 0.9 33.7 62 -5.6 21.9
01:10 1024 30.24 853 25.19 0.8 33.4 61 -5.8 21.6
01:15 1024 30.24 853 25.19 0.9 33.6 61 -5.9 21.5
01:20 1024 30.24 853 25.19 0.9 33.6 62 -5.5 22.1
01:25 1024 30.24 853 25.19 0.6 33.1 64 -5.5 22.2
01:30 1024 30.24 853 25.19 0.6 33 64 -5.5 22.1
01:35 1024 30.24 853 25.19 0.4 32.8 65 -5.4 22.3
01:40 1024 30.24 853 25.19 -0.1 31.9 68 -5.3 22.4
01:45 1024 30.24 853 25.19 -0.5 31.1 69 -5.4 22.2
01:50 1024 30.24 853 25.19 -0.5 31 69 -5.6 22
01:55 1024 30.24 853 25.19 -0.3 31.4 67 -5.7 21.7
02:00 1024 30.24 853 25.19 -0.2 31.6 68 -5.4 22.3
02:05 1024 30.24 853 25.19 -0.4 31.3 69 -5.4 22.3
02:10 1024 30.24 853 25.19 -0.4 31.3 70 -5.3 22.5
02:15 1024 30.24 853 25.19 -0.5 31 71 -5.1 22.8
02:20 1024 30.24 853 25.19 -0.7 30.7 73 -5 23
02:25 1024 30.24 853 25.19 -1 30.2 74 -5.1 22.8
02:30 1024 30.24 853 25.19 -1 30.2 74 -5.1 22.9
02:35 1024 30.24 853 25.19 -1.1 30 75 -5 23.1
02:40 1024 30.24 853 25.19 -1.3 29.7 74 -5.3 22.4
02:45 1024 30.24 853 25.19 -1.4 29.5 75 -5.3 22.4
02:50 1024 30.24 853 25.19 -1.4 29.5 73 -5.7 21.7
02:55 1024 30.24 853 25.19 -1 30.1 69 -6.1 21.1
03:00 1024 30.24 853 25.19 -0.6 30.8 66 -6.2 20.8
03:05 1024 30.24 853 25.19 -0.4 31.4 64 -6.3 20.6
03:10 1024 30.24 854 25.22 -0.2 31.6 64 -6.3 20.6
03:15 1024 30.24 853 25.19 -0.4 31.3 67 -5.9 21.4
03:20 1024 30.24 853 25.19 -0.9 30.5 68 -6.1 21
03:25 1024 30.24 854 25.22 -0.9 30.4 67 -6.3 20.6
03:30 1024 30.24 854 25.22 -0.8 30.5 64 -6.8 19.8
03:35 1024 30.24 854 25.22 -0.4 31.2 64 -6.4 20.4
03:40 1024 30.24 853 25.19 -0.4 31.2 63 -6.6 20.2
03:45 1024 30.24 853 25.19 -0.6 31 64 -6.5 20.3
03:50 1024 30.24 853 25.19 -0.8 30.6 67 -6.3 20.7
03:55 1024 30.24 853 25.19 -0.9 30.4 67 -6.3 20.6
04:00 1024 30.24 853 25.19 -1 30.3 67 -6.3 20.6
04:05 1024 30.24 853 25.19 -1.1 30.1 67 -6.4 20.6
04:10 1024 30.24 853 25.19 -1.2 29.9 68 -6.3 20.7
04:15 1024 30.24 854 25.22 -1.3 29.7 69 -6.4 20.6
04:20 1024 30.24 854 25.22 -1.4 29.5 67 -6.8 19.8
04:25 1024 30.24 854 25.22 -1 30.1 65 -6.8 19.7
04:30 1025 30.27 854 25.22 -0.9 30.4 65 -6.7 20
04:35 1025 30.27 854 25.22 -0.9 30.5 65 -6.7 19.9
04:40 1025 30.27 854 25.22 -0.8 30.6 64 -6.8 19.7
04:45 1025 30.27 854 25.22 -0.7 30.7 64 -6.7 20
04:50 1025 30.27 854 25.22 -0.6 31 64 -6.7 20
04:55 1024 30.24 854 25.22 -0.7 30.8 64 -6.7 20
05:00 1025 30.27 854 25.22 -0.7 30.7 64 -6.7 20
05:05 1025 30.27 854 25.22 -0.8 30.5 65 -6.7 20
05:10 1025 30.27 854 25.22 -0.7 30.7 64 -6.6 20
05:15 1025 30.27 854 25.22 -0.7 30.7 66 -6.4 20.6
05:20 1025 30.27 854 25.22 -1.2 29.9 68 -6.4 20.5
05:25 1025 30.27 854 25.22 -1.3 29.6 68 -6.5 20.4
05:30 1025 30.27 854 25.22 -1.4 29.4 68 -6.6 20.2
05:35 1025 30.27 854 25.22 -1.5 29.3 69 -6.5 20.2
05:40 1025 30.27 854 25.22 -1.7 28.9 70 -6.5 20.3
05:45 1025 30.27 854 25.22 -1.9 28.6 71 -6.6 20.2
05:50 1025 30.27 854 25.22 -2 28.5 71 -6.5 20.2
05:55 1025 30.27 854 25.22 -2.2 28.1 74 -6.1 20.9
06:00 1025 30.27 854 25.22 -2 28.4 71 -6.5 20.3
06:05 1025 30.27 854 25.22 -2.1 28.3 74 -6 21.1
06:10 1025 30.27 854 25.22 -2.6 27.3 77 -6.2 20.9
06:15 1025 30.27 854 25.22 -2.8 26.9 77 -6.3 20.7
06:20 1025 30.27 854 25.22 -2.8 27 77 -6.3 20.6
06:25 1025 30.27 854 25.22 -2.6 27.4 76 -6.2 20.9
06:30 1025 30.27 854 25.22 -2.6 27.4 74 -6.5 20.2
06:35 1025 30.27 854 25.22 -2.6 27.3 75 -6.4 20.5
06:40 1025 30.27 854 25.22 -2.7 27.2 75 -6.4 20.5
06:45 1025 30.27 854 25.22 -2.6 27.4 74 -6.6 20.2
06:50 1025 30.27 854 25.22 -2.3 27.9 73 -6.6 20.2
06:55 1025 30.27 854 25.22 -2.4 27.6 75 -6.2 20.8
07:00 1025 30.27 854 25.22 -2.5 27.5 74 -6.6 20.2
07:05 1025 30.27 854 25.22 -2.4 27.7 74 -6.5 20.3
07:10 1025 30.27 854 25.22 -2.1 28.2 74 -6.1 21.1
07:15 1025 30.27 854 25.22 -2.1 28.3 72 -6.4 20.5
07:20 1025 30.27 854 25.22 -2.1 28.1 73 -6.4 20.5
07:25 1025 30.27 854 25.22 -2.2 28.1 73 -6.4 20.4
07:30 1025 30.27 854 25.22 -2.5 27.6 74 -6.5 20.3
07:35 1025 30.27 854 25.22 -2.6 27.3 75 -6.5 20.3
07:40 1025 30.27 855 25.25 -2.6 27.3 75 -6.5 20.2
07:45 1025 30.27 855 25.25 -2.9 26.8 77 -6.4 20.5
07:50 1025 30.27 855 25.25 -2.9 26.7 75 -6.7 19.9
07:55 1025 30.27 854 25.22 -2.9 26.8 77 -6.4 20.5
08:00 1025 30.27 854 25.22 -2.8 27 76 -6.5 20.3
08:05 1025 30.27 855 25.25 -2.7 27.1 76 -6.4 20.4
08:10 1025 30.27 855 25.25 -2.8 27 76 -6.5 20.3
08:15 1025 30.27 855 25.25 -2.8 27 77 -6.4 20.5
08:20 1025 30.27 855 25.25 -2.6 27.4 75 -6.4 20.5
08:25 1025 30.27 855 25.25 -2.3 27.8 74 -6.3 20.6
08:30 1026 30.3 855 25.25 -2.4 27.6 74 -6.5 20.3
08:35 1026 30.3 855 25.25 -2.4 27.6 74 -6.5 20.3
08:40 1026 30.3 855 25.25 -2.7 27.2 75 -6.5 20.3
08:45 1026 30.3 855 25.25 -2.6 27.3 77 -6.1 21
08:50 1026 30.3 855 25.25 -2.4 27.8 74 -6.4 20.6
08:55 1026 30.3 855 25.25 -2.1 28.2 73 -6.4 20.5
09:00 1026 30.3 855 25.25 -1.9 28.6 72 -6.3 20.6
09:05 1026 30.3 855 25.25 -1.6 29.2 70 -6.4 20.5
09:10 1026 30.3 855 25.25 -1.2 29.9 69 -6.2 20.8
09:15 1026 30.3 855 25.25 -1 30.2 69 -6 21.1
09:20 1026 30.3 855 25.25 -1.1 30.1 68 -6.3 20.6
09:25 1026 30.3 855 25.25 -0.6 31 66 -6.1 21.1
09:30 1026 30.3 855 25.25 -0.3 31.4 64 -6.3 20.6
09:35 1026 30.3 855 25.25 -0.3 31.5 65 -6 21.1
09:40 1026 30.3 855 25.25 -0.2 31.6 65 -6.1 21
09:45 1026 30.3 855 25.25 -0.1 31.9 65 -5.9 21.4
09:50 1026 30.3 855 25.25 0.2 32.4 64 -5.8 21.6
09:55 1026 30.3 855 25.25 0.9 33.6 62 -5.7 21.7
10:00 1026 30.3 855 25.25 1.5 34.8 57 -6.1 21
10:05 1026 30.3 855 25.25 1.8 35.3 58 -5.6 21.8
10:10 1026 30.3 855 25.25 2.8 37 50 -6.6 20.2
10:15 1026 30.3 855 25.25 2.8 37 53 -5.9 21.3
10:20 1026 30.3 855 25.25 2.9 37.2 48 -7.1 19.2
10:25 1026 30.3 855 25.25 3.6 38.4 46 -7 19.4
10:30 1026 30.3 855 25.25 4.4 40 43 -7.2 19.1
10:35 1026 30.3 855 25.25 4.5 40.1 43 -7 19.3
10:40 1026 30.3 855 25.25 4.2 39.5 44 -7 19.4
10:45 1026 30.3 855 25.25 3.7 38.6 45 -7.2 19
10:50 1026 30.3 855 25.25 3.4 38.2 46 -7 19.3
10:55 1026 30.3 855 25.25 3.9 39 44 -7.3 18.9
11:00 1026 30.3 855 25.25 3.9 39 45 -6.9 19.6
11:05 1026 30.3 855 25.25 4.5 40 43 -7 19.3
11:10 1026 30.3 855 25.25 4.9 40.8 42 -7 19.5
11:15 1026 30.3 855 25.25 5.1 41.2 41 -7 19.5
11:20 1026 30.3 855 25.25 5.3 41.6 42 -6.6 20
11:25 1026 30.3 855 25.25 5.2 41.4 42 -6.8 19.8
11:30 1026 30.3 855 25.25 5.1 41.1 42 -6.9 19.7
11:35 1026 30.3 855 25.25 5.2 41.3 41 -6.9 19.6
11:40 1026 30.3 855 25.25 5.1 41.2 43 -6.5 20.4
11:45 1026 30.3 855 25.25 5.2 41.3 42 -6.7 19.9
11:50 1026 30.3 855 25.25 5.1 41.2 42 -6.8 19.8
11:55 1026 30.3 855 25.25 5.3 41.6 45 -5.7 21.7
12:00 1026 30.3 855 25.25 6.1 43 42 -5.9 21.4
12:05 1026 30.3 855 25.25 6.3 43.4 41 -6 21.3
12:10 1026 30.3 855 25.25 5.9 42.6 42 -5.9 21.3
12:15 1026 30.3 855 25.25 5.5 41.9 42 -6.4 20.6
12:20 1026 30.3 855 25.25 5.4 41.7 44 -5.8 21.6
12:25 1026 30.3 855 25.25 5.4 41.8 43 -6.1 21.1
12:30 1026 30.3 855 25.25 6 42.8 41 -6.2 20.8
12:35 1026 30.3 855 25.25 6.4 43.5 40 -6.2 20.8
12:40 1026 30.3 855 25.25 6.7 44.1 40 -5.9 21.4
12:45 1026 30.3 855 25.25 6.8 44.2 39 -6.3 20.6
12:50 1026 30.3 855 25.25 7 44.5 40 -5.9 21.4
12:55 1026 30.3 855 25.25 6.8 44.3 40 -5.9 21.4
13:00 1026 30.3 855 25.25 6.9 44.3 40 -5.8 21.6
13:05 1026 30.3 855 25.25 7.2 44.9 38 -6.1 21
13:10 1026 30.3 855 25.25 7.3 45.2 38 -6.1 21.1
13:15 1026 30.3 855 25.25 7.2 44.9 40 -5.7 21.8
13:20 1026 30.3 855 25.25 7.3 45.1 38 -5.9 21.4
13:25 1026 30.3 855 25.25 7.3 45.2 39 -5.7 21.8
13:30 1026 30.3 855 25.25 7 44.6 41 -5.5 22.1
13:35 1026 30.3 855 25.25 7.3 45.2 37 -6.2 20.8
13:40 1026 30.3 855 25.25 7.1 44.8 39 -6 21.2
13:45 1026 30.3 855 25.25 6.3 43.3 40 -6.2 20.8
13:50 1026 30.3 855 25.25 7.2 45 35 -7.1 19.1
13:55 1025 30.27 855 25.25 6.9 44.3 38 -6.3 20.6
14:00 1025 30.27 855 25.25 7.5 45.5 37 -6.2 20.8
14:05 1025 30.27 855 25.25 8.1 46.6 35 -6.5 20.3
14:10 1025 30.27 855 25.25 8.2 46.7 35 -6.2 20.8
14:15 1025 30.27 855 25.25 8.1 46.6 34 -6.7 20
14:20 1025 30.27 855 25.25 8.6 47.5 34 -6.2 20.9
14:25 1025 30.27 854 25.22 8.9 48 34 -6.3 20.7
14:30 1025 30.27 854 25.22 9.1 48.4 34 -6 21.3
14:35 1025 30.27 854 25.22 9 48.2 34 -6.1 20.9
14:40 1025 30.27 854 25.22 9.3 48.8 33 -6.2 20.9
14:45 1025 30.27 854 25.22 9.1 48.4 34 -5.9 21.4
14:50 1025 30.27 854 25.22 8.9 48.1 34 -6 21.2
14:55 1025 30.27 854 25.22 9 48.3 34 -6.1 21
15:00 1025 30.27 854 25.22 8.8 47.8 35 -5.7 21.7
15:05 1025 30.27 854 25.22 8.8 47.9 34 -6 21.2
15:10 1025 30.27 854 25.22 8.8 47.9 34 -6.1 21.1
15:15 1025 30.27 854 25.22 8.7 47.7 34 -6.3 20.7
15:20 1025 30.27 854 25.22 8.6 47.5 35 -6.1 21
15:25 1025 30.27 854 25.22 8.3 46.9 36 -6 21.2
15:30 1025 30.27 854 25.22 8.6 47.4 35 -6.1 21
15:35 1025 30.27 854 25.22 8.4 47.1 36 -5.8 21.5
15:40 1025 30.27 854 25.22 8.6 47.4 35 -6 21.2
15:45 1025 30.27 854 25.22 8.5 47.3 36 -5.6 21.9
15:50 1025 30.27 854 25.22 8.5 47.3 36 -5.9 21.4
15:55 1025 30.27 854 25.22 8.5 47.2 36 -5.6 21.9
16:00 1025 30.27 854 25.22 8.5 47.3 36 -5.6 21.9
16:05 1025 30.27 854 25.22 8.4 47.1 38 -5.2 22.6
16:10 1025 30.27 854 25.22 8.5 47.2 38 -5 23
16:15 1025 30.27 854 25.22 8.5 47.3 38 -5.1 22.9
16:20 1025 30.27 854 25.22 8.5 47.4 40 -4.4 24.1
16:25 1025 30.27 854 25.22 8.4 47.1 41 -4 24.8
16:30 1025 30.27 854 25.22 8.1 46.6 43 -3.8 25.2
16:35 1025 30.27 854 25.22 7.7 45.9 45 -3.4 25.8
16:40 1025 30.27 854 25.22 7.5 45.5 43 -4.1 24.5
16:45 1025 30.27 854 25.22 7.8 46.1 42 -4.2 24.5
16:50 1025 30.27 854 25.22 7.8 46.1 42 -4.1 24.6
16:55 1025 30.27 854 25.22 7.9 46.2 43 -3.9 25
17:00 1025 30.27 854 25.22 7.8 46 43 -4 24.8
17:05 1025 30.27 854 25.22 7.4 45.3 44 -3.9 25
17:10 1025 30.27 854 25.22 7.4 45.2 44 -4 24.8
17:15 1025 30.27 855 25.25 7.2 44.9 45 -3.9 24.9
17:20 1025 30.27 855 25.25 7.1 44.8 45 -3.9 25
17:25 1025 30.27 854 25.22 7 44.5 46 -3.8 25.1
17:30 1025 30.27 854 25.22 6.6 43.8 47 -4 24.7
17:35 1025 30.27 854 25.22 6.4 43.4 46 -4.5 24
17:40 1025 30.27 854 25.22 6.2 43.2 49 -3.7 25.4
17:45 1025 30.27 854 25.22 6.2 43.1 48 -4.1 24.7
17:50 1025 30.27 854 25.22 6.2 43.1 48 -4 24.7
17:55 1025 30.27 854 25.22 6.2 43.1 51 -3.3 26
18:00 1025 30.27 854 25.22 5.7 42.2 55 -2.7 27.1
18:05 1025 30.27 854 25.22 5.4 41.6 62 -1.4 29.6
18:10 1025 30.27 854 25.22 5 41.1 65 -1.1 30.1
18:15 1025 30.27 854 25.22 4.9 40.9 65 -1.1 30.1
18:20 1025 30.27 854 25.22 4.8 40.7 64 -1.3 29.6
18:25 1025 30.27 854 25.22 4.7 40.5 66 -1.1 30.1
18:30 1025 30.27 854 25.22 4.5 40 69 -0.8 30.6
18:35 1025 30.27 854 25.22 4.3 39.7 67 -1.2 29.8
18:40 1025 30.27 854 25.22 4 39.3 66 -1.7 29
18:45 1025 30.27 854 25.22 4 39.1 68 -1.4 29.4
18:50 1025 30.27 854 25.22 3.9 39 70 -1 30.1
18:55 1025 30.27 854 25.22 3.7 38.7 72 -0.9 30.4
19:00 1025 30.27 854 25.22 3.4 38.1 73 -1 30.3
19:05 1025 30.27 854 25.22 3 37.4 73 -1.4 29.5
19:10 1025 30.27 854 25.22 3.1 37.6 67 -2.4 27.6
19:15 1025 30.27 854 25.22 3.6 38.5 66 -2.2 28
19:20 1025 30.27 854 25.22 4 39.2 65 -2 28.4
19:25 1025 30.27 854 25.22 4.2 39.6 63 -2.1 28.2
19:30 1025 30.27 854 25.22 4.7 40.4 61 -2.3 27.9
19:35 1025 30.27 854 25.22 5.1 41.2 58 -2.4 27.6
19:40 1025 30.27 854 25.22 5.3 41.5 56 -2.7 27.1
19:45 1025 30.27 854 25.22 5.5 41.9 57 -2.3 27.9
19:50 1025 30.27 854 25.22 5.4 41.6 58 -2.3 27.9
19:55 1025 30.27 855 25.25 5.4 41.6 57 -2.5 27.5
20:00 1025 30.27 855 25.25 5.3 41.6 59 -2 28.4
20:05 1025 30.27 855 25.25 5 41 61 -2 28.4
20:10 1026 30.3 855 25.25 4.7 40.4 63 -1.8 28.7
20:15 1026 30.3 855 25.25 4.4 39.9 61 -2.5 27.4
20:20 1025 30.27 855 25.25 4.5 40.1 61 -2.3 27.9
20:25 1026 30.3 855 25.25 4.6 40.4 60 -2.4 27.6
20:30 1026 30.3 855 25.25 4.8 40.7 59 -2.4 27.6
20:35 1026 30.3 855 25.25 4.8 40.6 61 -2 28.4
20:40 1026 30.3 855 25.25 4.5 40.2 63 -1.9 28.5
20:45 1026 30.3 855 25.25 4.2 39.6 62 -2.4 27.7
20:50 1026 30.3 855 25.25 4.6 40.3 59 -2.7 27.2
20:55 1026 30.3 855 25.25 4.8 40.6 60 -2.3 27.9
21:00 1026 30.3 855 25.25 4.5 40 62 -2.2 28
21:05 1025 30.27 855 25.25 4.5 40.2 60 -2.6 27.4
21:10 1025 30.27 855 25.25 4.7 40.5 58 -2.9 26.8
21:15 1025 30.27 855 25.25 4.7 40.5 58 -2.7 27.1
21:20 1026 30.3 855 25.25 4.7 40.5 62 -2 28.5
21:25 1025 30.27 855 25.25 3.9 39 65 -2 28.4
21:30 1025 30.27 855 25.25 3.5 38.4 65 -2.3 27.8
21:35 1026 30.3 855 25.25 3.5 38.3 65 -2.4 27.7
21:40 1026 30.3 855 25.25 3.8 38.8 61 -3 26.6
21:45 1026 30.3 855 25.25 4.6 40.3 58 -2.9 26.8
21:50 1026 30.3 855 25.25 5.2 41.3 56 -3 26.7
21:55 1026 30.3 855 25.25 5.4 41.8 56 -2.7 27.2
22:00 1026 30.3 855 25.25 5.4 41.8 56 -2.7 27.2
22:05 1026 30.3 855 25.25 5.3 41.6 57 -2.4 27.6
22:10 1026 30.3 855 25.25 5.1 41.2 58 -2.5 27.5
22:15 1026 30.3 855 25.25 5.1 41.3 57 -2.6 27.3
22:20 1026 30.3 855 25.25 5.2 41.3 57 -2.7 27.1
22:25 1026 30.3 855 25.25 5.2 41.3 56 -2.8 27
22:30 1026 30.3 855 25.25 5.2 41.4 56 -2.8 26.9
22:35 1026 30.3 855 25.25 5.3 41.5 54 -3.2 26.2
22:40 1026 30.3 855 25.25 5.5 41.9 54 -3 26.5
22:45 1026 30.3 855 25.25 5.5 42 53 -3.3 26
22:50 1026 30.3 855 25.25 5.7 42.3 52 -3.3 26.1
22:55 1026 30.3 855 25.25 5.8 42.5 52 -3.3 26.1
23:00 1026 30.3 855 25.25 5.8 42.5 52 -3.4 25.9
23:05 1026 30.3 855 25.25 6 42.8 51 -3.4 25.9
23:10 1026 30.3 855 25.25 6.2 43.1 51 -3.2 26.2
23:15 1026 30.3 855 25.25 6.1 43 50 -3.5 25.7
23:20 1026 30.3 855 25.25 5.9 42.6 51 -3.3 26
23:25 1026 30.3 855 25.25 5.9 42.6 51 -3.4 25.9
23:30 1026 30.3 855 25.25 5.9 42.7 52 -3.3 26.1
23:35 1026 30.3 855 25.25 5.4 41.8 53 -3.3 26
23:40 1026 30.3 855 25.25 5.3 41.6 54 -3.1 26.4
23:45 1026 30.3 855 25.25 4.7 40.5 59 -2.6 27.4
23:50 1026 30.3 855 25.25 4.2 39.6 58 -3.2 26.2
23:55 1026 30.3 855 25.25 4.3 39.8 59 -3 26.6
24:00 1026 30.3 856 25.28 4.5 40.1 57 -3.3 26